Olmsted Township, Ohio
Current Conditions -  °F | °C
As of 3:51 AM on Sunday 26 Oct 2014 (Local Time) from KCLE Reporting Station
Clear Clear  
Wind Chill: 53°   Ceiling: Unl
Heat Index: 53°   Visibility: 10mi
Dew Point: 36°   Wind: 13mph
Humidity: 52%   Direction: 310°NW
Pressure: 29.85"   Gusts: 21mph
Location:  41.374°N, 81.9211°W
Report Text: KCLE 260751Z 31011G18KT 10SM CLR 12/02 A2985 RMK AO2 SLP108 T01170022
Loading
Personal Weather Stations






























Interactive Weather Map
Tropical Storm Tracking
New forecast layout! Learn more

10-Day Weather Forecast

Advertisements
Track Severe Weather on mobile